Hovedside
METAR-TAF:

METAR-TAF

Lufthavner :

Bardufoss, Norge

Bardufoss lufthavn

breddegrad: 69-04N, lengdegrad: 018-32E, høyde over havet: 7 m

Gjeldene værobservasjon

Denne rapporten ble laget for 22 minutter siden, klokken 13:20 UTC
Flau vind
Temperatur -13°C
Luftfuktighet 51%
Trykk 1045 hPa
Sikt 10 km eller mer
ingen skyer under 1500 m og ingen bygeskyer

METAR: ENDU 251320Z 00000KT CAVOK M13/M21 Q1045 NOSIG RMK WIND 1100FT 15003KT WIND 2200FT 13008KT

Tid: 14:42 (13:42 UTC)

Varsel

Varsel gyldig fra 25. klokken 12 UTC til 26. klokken 12 UTC
Vind 5 kt fra skiftende retning
Sikt 10 km eller mer
ingen skyer under 1500 m og ingen bygeskyer

TAF: ENDU 2512/2612 VRB05KT CAVOK

Værobservasjoner og værvarsel for over 4000 flyplasser (METAR- og TAF-rapporter).

Tilgjengelige stasjoner er representert av de røde og gule prikkene på kartet.

Hold musepekeren over prikken for å se navnet på stasjonen.

Klikk så for å se værobservasjoner og -varsler.

For å forandre kartet kan du klikke på den grønne knappen med svart kryss for å zoome inn, på den grønne knappen med strek for å zoome ut, eller på de grønne pilene for å se tilstøtende kart.


METAR-TAF: